sensor_id;sensor_type;location;lat;lon;timestamp;temperature;humidity
31391;DHT22;18022;45.492;11.548;2022-07-19T00:01:58;23.60;94.90
31391;DHT22;18022;45.492;11.548;2022-07-19T00:04:24;23.70;94.80
31391;DHT22;18022;45.492;11.548;2022-07-19T00:06:50;23.60;94.90
31391;DHT22;18022;45.492;11.548;2022-07-19T00:15:20;23.50;95.20
31391;DHT22;18022;45.492;11.548;2022-07-19T00:17:48;23.50;95.20
31391;DHT22;18022;45.492;11.548;2022-07-19T00:20:16;23.50;95.10
31391;DHT22;18022;45.492;11.548;2022-07-19T00:22:42;23.60;95.10
31391;DHT22;18022;45.492;11.548;2022-07-19T00:25:09;23.50;95.20
31391;DHT22;18022;45.492;11.548;2022-07-19T00:27:35;23.50;95.40
31391;DHT22;18022;45.492;11.548;2022-07-19T00:30:02;23.40;95.60
31391;DHT22;18022;45.492;11.548;2022-07-19T00:32:28;23.30;96.10
31391;DHT22;18022;45.492;11.548;2022-07-19T00:34:53;23.10;96.30
31391;DHT22;18022;45.492;11.548;2022-07-19T00:37:19;22.90;96.60
31391;DHT22;18022;45.492;11.548;2022-07-19T00:39:45;22.70;97.00
31391;DHT22;18022;45.492;11.548;2022-07-19T00:42:10;22.70;97.00
31391;DHT22;18022;45.492;11.548;2022-07-19T00:44:36;22.70;96.90
31391;DHT22;18022;45.492;11.548;2022-07-19T00:47:02;22.70;96.90
31391;DHT22;18022;45.492;11.548;2022-07-19T00:49:28;22.80;96.70
31391;DHT22;18022;45.492;11.548;2022-07-19T00:51:54;22.90;96.60
31391;DHT22;18022;45.492;11.548;2022-07-19T00:54:22;22.90;96.60
31391;DHT22;18022;45.492;11.548;2022-07-19T00:56:50;22.90;96.40
31391;DHT22;18022;45.492;11.548;2022-07-19T00:59:17;23.00;96.30
31391;DHT22;18022;45.492;11.548;2022-07-19T01:01:43;23.00;96.30
31391;DHT22;18022;45.492;11.548;2022-07-19T01:04:10;23.00;96.80
31391;DHT22;18022;45.492;11.548;2022-07-19T01:06:36;23.10;96.80
31391;DHT22;18022;45.492;11.548;2022-07-19T01:09:03;23.20;96.90
31391;DHT22;18022;45.492;11.548;2022-07-19T01:11:29;23.00;96.80
31391;DHT22;18022;45.492;11.548;2022-07-19T01:13:55;23.10;96.60
31391;DHT22;18022;45.492;11.548;2022-07-19T01:16:20;23.20;96.90
31391;DHT22;18022;45.492;11.548;2022-07-19T01:18:46;23.20;96.80
31391;DHT22;18022;45.492;11.548;2022-07-19T01:21:20;23.30;96.60
31391;DHT22;18022;45.492;11.548;2022-07-19T01:23:47;23.20;96.60
31391;DHT22;18022;45.492;11.548;2022-07-19T01:26:12;23.10;96.90
31391;DHT22;18022;45.492;11.548;2022-07-19T01:28:38;22.90;97.40
31391;DHT22;18022;45.492;11.548;2022-07-19T01:31:04;22.90;97.50
31391;DHT22;18022;45.492;11.548;2022-07-19T01:33:30;22.80;97.60
31391;DHT22;18022;45.492;11.548;2022-07-19T01:35:56;22.90;97.40
31391;DHT22;18022;45.492;11.548;2022-07-19T01:38:21;22.80;97.50
31391;DHT22;18022;45.492;11.548;2022-07-19T01:40:47;22.70;97.70
31391;DHT22;18022;45.492;11.548;2022-07-19T01:43:13;22.50;97.80
31391;DHT22;18022;45.492;11.548;2022-07-19T01:45:38;22.60;97.80
31391;DHT22;18022;45.492;11.548;2022-07-19T01:48:05;22.60;97.70
31391;DHT22;18022;45.492;11.548;2022-07-19T01:50:31;22.60;97.80
31391;DHT22;18022;45.492;11.548;2022-07-19T01:52:56;22.50;97.90
31391;DHT22;18022;45.492;11.548;2022-07-19T01:55:22;22.50;98.20
31391;DHT22;18022;45.492;11.548;2022-07-19T01:57:49;22.60;97.80
31391;DHT22;18022;45.492;11.548;2022-07-19T02:00:15;22.60;97.60
31391;DHT22;18022;45.492;11.548;2022-07-19T02:02:41;22.50;97.90
31391;DHT22;18022;45.492;11.548;2022-07-19T02:05:07;22.30;98.10
31391;DHT22;18022;45.492;11.548;2022-07-19T02:07:34;22.20;98.60
31391;DHT22;18022;45.492;11.548;2022-07-19T02:09:59;22.20;98.60
31391;DHT22;18022;45.492;11.548;2022-07-19T02:12:25;22.20;98.50
31391;DHT22;18022;45.492;11.548;2022-07-19T02:14:51;22.30;98.50
31391;DHT22;18022;45.492;11.548;2022-07-19T02:17:17;22.30;98.50
31391;DHT22;18022;45.492;11.548;2022-07-19T02:19:43;22.30;98.40
31391;DHT22;18022;45.492;11.548;2022-07-19T02:22:08;22.30;98.30
31391;DHT22;18022;45.492;11.548;2022-07-19T02:24:34;22.20;98.50
31391;DHT22;18022;45.492;11.548;2022-07-19T02:27:00;22.20;98.70
31391;DHT22;18022;45.492;11.548;2022-07-19T02:29:25;22.20;98.70
31391;DHT22;18022;45.492;11.548;2022-07-19T02:31:51;22.20;98.60
31391;DHT22;18022;45.492;11.548;2022-07-19T02:34:17;22.20;98.60
31391;DHT22;18022;45.492;11.548;2022-07-19T02:36:42;22.20;98.70
31391;DHT22;18022;45.492;11.548;2022-07-19T02:39:08;22.10;98.70
31391;DHT22;18022;45.492;11.548;2022-07-19T02:41:34;22.00;98.90
31391;DHT22;18022;45.492;11.548;2022-07-19T02:43:59;22.00;99.30
31391;DHT22;18022;45.492;11.548;2022-07-19T02:46:25;21.80;99.40
31391;DHT22;18022;45.492;11.548;2022-07-19T02:48:51;21.80;99.60
31391;DHT22;18022;45.492;11.548;2022-07-19T02:51:16;21.80;99.70
31391;DHT22;18022;45.492;11.548;2022-07-19T02:53:42;21.80;99.70
31391;DHT22;18022;45.492;11.548;2022-07-19T02:56:08;21.80;99.70
31391;DHT22;18022;45.492;11.548;2022-07-19T02:58:33;21.90;99.50
31391;DHT22;18022;45.492;11.548;2022-07-19T03:00:59;22.00;99.40
31391;DHT22;18022;45.492;11.548;2022-07-19T03:03:25;22.10;99.20
31391;DHT22;18022;45.492;11.548;2022-07-19T03:06:18;22.20;99.20
31391;DHT22;18022;45.492;11.548;2022-07-19T03:08:45;22.10;98.90
31391;DHT22;18022;45.492;11.548;2022-07-19T03:11:11;22.20;99.10
31391;DHT22;18022;45.492;11.548;2022-07-19T03:13:37;22.10;99.20
31391;DHT22;18022;45.492;11.548;2022-07-19T03:16:03;21.90;99.30
31391;DHT22;18022;45.492;11.548;2022-07-19T03:18:29;21.60;99.80
31391;DHT22;18022;45.492;11.548;2022-07-19T03:20:55;21.70;99.90
31391;DHT22;18022;45.492;11.548;2022-07-19T03:23:21;21.90;99.90
31391;DHT22;18022;45.492;11.548;2022-07-19T03:25:46;22.00;99.90
31391;DHT22;18022;45.492;11.548;2022-07-19T03:28:12;22.10;99.70
31391;DHT22;18022;45.492;11.548;2022-07-19T03:30:38;22.10;99.80
31391;DHT22;18022;45.492;11.548;2022-07-19T03:33:04;21.80;99.90
31391;DHT22;18022;45.492;11.548;2022-07-19T03:35:30;21.90;99.90
31391;DHT22;18022;45.492;11.548;2022-07-19T03:37:56;21.70;99.90
31391;DHT22;18022;45.492;11.548;2022-07-19T03:40:21;21.60;99.90
31391;DHT22;18022;45.492;11.548;2022-07-19T03:42:47;21.50;99.90
31391;DHT22;18022;45.492;11.548;2022-07-19T03:45:13;21.40;99.90
31391;DHT22;18022;45.492;11.548;2022-07-19T03:47:40;21.30;99.90
31391;DHT22;18022;45.492;11.548;2022-07-19T03:50:06;21.40;99.90
31391;DHT22;18022;45.492;11.548;2022-07-19T03:52:31;21.40;99.90
31391;DHT22;18022;45.492;11.548;2022-07-19T03:54:57;21.50;99.90
31391;DHT22;18022;45.492;11.548;2022-07-19T03:57:23;21.50;99.90
31391;DHT22;18022;45.492;11.548;2022-07-19T03:59:48;21.50;99.90
31391;DHT22;18022;45.492;11.548;2022-07-19T04:02:14;21.50;99.90
31391;DHT22;18022;45.492;11.548;2022-07-19T04:04:40;21.50;99.90
31391;DHT22;18022;45.492;11.548;2022-07-19T04:07:05;21.50;99.90
31391;DHT22;18022;45.492;11.548;2022-07-19T04:09:31;21.40;99.90
31391;DHT22;18022;45.492;11.548;2022-07-19T04:11:57;21.50;99.90
31391;DHT22;18022;45.492;11.548;2022-07-19T04:14:22;21.60;99.90
31391;DHT22;18022;45.492;11.548;2022-07-19T04:16:48;21.50;99.90
31391;DHT22;18022;45.492;11.548;2022-07-19T04:19:14;21.50;99.90
31391;DHT22;18022;45.492;11.548;2022-07-19T04:21:40;21.60;99.90
31391;DHT22;18022;45.492;11.548;2022-07-19T04:24:05;21.50;99.90
31391;DHT22;18022;45.492;11.548;2022-07-19T04:26:31;21.40;99.90
31391;DHT22;18022;45.492;11.548;2022-07-19T04:28:56;21.50;99.90
31391;DHT22;18022;45.492;11.548;2022-07-19T04:31:22;21.50;99.90
31391;DHT22;18022;45.492;11.548;2022-07-19T04:33:48;21.50;99.90
31391;DHT22;18022;45.492;11.548;2022-07-19T04:36:13;21.60;99.90
31391;DHT22;18022;45.492;11.548;2022-07-19T04:38:39;21.60;99.90
31391;DHT22;18022;45.492;11.548;2022-07-19T04:41:05;21.60;99.90
31391;DHT22;18022;45.492;11.548;2022-07-19T04:43:31;21.60;99.90
31391;DHT22;18022;45.492;11.548;2022-07-19T04:45:56;21.70;99.90
31391;DHT22;18022;45.492;11.548;2022-07-19T04:48:25;21.80;99.90
31391;DHT22;18022;45.492;11.548;2022-07-19T04:50:51;21.80;99.90
31391;DHT22;18022;45.492;11.548;2022-07-19T04:53:17;21.80;99.90
31391;DHT22;18022;45.492;11.548;2022-07-19T04:55:42;21.80;99.90
31391;DHT22;18022;45.492;11.548;2022-07-19T04:58:09;21.80;99.90
31391;DHT22;18022;45.492;11.548;2022-07-19T05:00:36;21.90;99.90
31391;DHT22;18022;45.492;11.548;2022-07-19T05:03:02;22.00;99.90
31391;DHT22;18022;45.492;11.548;2022-07-19T05:05:28;22.10;99.90
31391;DHT22;18022;45.492;11.548;2022-07-19T05:07:53;22.10;99.90
31391;DHT22;18022;45.492;11.548;2022-07-19T05:10:19;22.10;99.90
31391;DHT22;18022;45.492;11.548;2022-07-19T05:12:45;22.20;99.90
31391;DHT22;18022;45.492;11.548;2022-07-19T05:15:10;22.30;99.90
31391;DHT22;18022;45.492;11.548;2022-07-19T05:17:36;22.30;99.90
31391;DHT22;18022;45.492;11.548;2022-07-19T05:20:03;22.40;99.90
31391;DHT22;18022;45.492;11.548;2022-07-19T05:22:29;22.40;99.90
31391;DHT22;18022;45.492;11.548;2022-07-19T05:24:55;22.50;99.90
31391;DHT22;18022;45.492;11.548;2022-07-19T05:27:21;22.50;99.90
31391;DHT22;18022;45.492;11.548;2022-07-19T05:29:47;22.60;99.90
31391;DHT22;18022;45.492;11.548;2022-07-19T05:32:13;22.70;99.90
31391;DHT22;18022;45.492;11.548;2022-07-19T05:34:39;22.80;99.90
31391;DHT22;18022;45.492;11.548;2022-07-19T05:37:05;22.90;99.90
31391;DHT22;18022;45.492;11.548;2022-07-19T05:39:31;23.30;99.90
31391;DHT22;18022;45.492;11.548;2022-07-19T05:41:57;23.30;99.90
31391;DHT22;18022;45.492;11.548;2022-07-19T05:44:22;23.20;99.90
31391;DHT22;18022;45.492;11.548;2022-07-19T05:46:48;23.20;99.90
31391;DHT22;18022;45.492;11.548;2022-07-19T05:49:14;23.20;99.90
31391;DHT22;18022;45.492;11.548;2022-07-19T05:51:40;23.40;99.90
31391;DHT22;18022;45.492;11.548;2022-07-19T05:54:06;23.40;99.90
31391;DHT22;18022;45.492;11.548;2022-07-19T05:56:32;23.50;99.90
31391;DHT22;18022;45.492;11.548;2022-07-19T05:58:58;23.60;99.90
31391;DHT22;18022;45.492;11.548;2022-07-19T06:01:24;23.70;99.90
31391;DHT22;18022;45.492;11.548;2022-07-19T06:03:55;24.00;99.90
31391;DHT22;18022;45.492;11.548;2022-07-19T06:06:22;24.00;99.90
31391;DHT22;18022;45.492;11.548;2022-07-19T06:08:49;24.10;99.90
31391;DHT22;18022;45.492;11.548;2022-07-19T06:11:15;24.30;99.90
31391;DHT22;18022;45.492;11.548;2022-07-19T06:13:42;24.30;99.90
31391;DHT22;18022;45.492;11.548;2022-07-19T06:16:08;24.30;99.90
31391;DHT22;18022;45.492;11.548;2022-07-19T06:18:34;24.40;99.90
31391;DHT22;18022;45.492;11.548;2022-07-19T06:21:02;24.40;99.90
31391;DHT22;18022;45.492;11.548;2022-07-19T06:23:28;24.50;99.90
31391;DHT22;18022;45.492;11.548;2022-07-19T06:25:54;24.60;99.90
31391;DHT22;18022;45.492;11.548;2022-07-19T06:28:19;24.60;99.90
31391;DHT22;18022;45.492;11.548;2022-07-19T06:30:45;24.70;99.90
31391;DHT22;18022;45.492;11.548;2022-07-19T06:33:11;24.80;99.90
31391;DHT22;18022;45.492;11.548;2022-07-19T06:35:36;24.90;99.90
31391;DHT22;18022;45.492;11.548;2022-07-19T06:38:02;25.00;99.90
31391;DHT22;18022;45.492;11.548;2022-07-19T06:40:28;25.00;99.90
31391;DHT22;18022;45.492;11.548;2022-07-19T06:42:54;25.10;99.90
31391;DHT22;18022;45.492;11.548;2022-07-19T06:45:19;25.20;99.90
31391;DHT22;18022;45.492;11.548;2022-07-19T06:47:45;25.20;99.90
31391;DHT22;18022;45.492;11.548;2022-07-19T06:50:11;25.40;99.40
31391;DHT22;18022;45.492;11.548;2022-07-19T06:52:37;25.40;99.20
31391;DHT22;18022;45.492;11.548;2022-07-19T06:55:03;25.50;99.20
31391;DHT22;18022;45.492;11.548;2022-07-19T06:57:29;25.60;99.40
31391;DHT22;18022;45.492;11.548;2022-07-19T06:59:55;25.70;99.20
31391;DHT22;18022;45.492;11.548;2022-07-19T07:02:20;25.80;98.60
31391;DHT22;18022;45.492;11.548;2022-07-19T07:04:46;25.90;95.70
31391;DHT22;18022;45.492;11.548;2022-07-19T07:07:13;26.00;95.30
31391;DHT22;18022;45.492;11.548;2022-07-19T07:09:39;26.10;95.00
31391;DHT22;18022;45.492;11.548;2022-07-19T07:12:04;26.20;94.20
31391;DHT22;18022;45.492;11.548;2022-07-19T07:14:30;26.30;94.40
31391;DHT22;18022;45.492;11.548;2022-07-19T07:16:56;26.40;93.40
31391;DHT22;18022;45.492;11.548;2022-07-19T07:19:21;26.50;93.20
31391;DHT22;18022;45.492;11.548;2022-07-19T07:21:47;26.70;92.60
31391;DHT22;18022;45.492;11.548;2022-07-19T07:24:14;26.80;91.20
31391;DHT22;18022;45.492;11.548;2022-07-19T07:26:40;26.80;90.90
31391;DHT22;18022;45.492;11.548;2022-07-19T07:29:05;26.90;91.50
31391;DHT22;18022;45.492;11.548;2022-07-19T07:31:31;26.90;91.10
31391;DHT22;18022;45.492;11.548;2022-07-19T07:33:57;27.00;91.30
31391;DHT22;18022;45.492;11.548;2022-07-19T07:36:22;27.10;90.30
31391;DHT22;18022;45.492;11.548;2022-07-19T07:38:48;27.10;90.40
31391;DHT22;18022;45.492;11.548;2022-07-19T07:41:14;27.20;90.30
31391;DHT22;18022;45.492;11.548;2022-07-19T07:43:40;27.30;90.10
31391;DHT22;18022;45.492;11.548;2022-07-19T07:46:05;27.40;90.50
31391;DHT22;18022;45.492;11.548;2022-07-19T07:48:31;27.40;89.70
31391;DHT22;18022;45.492;11.548;2022-07-19T07:50:57;27.40;89.90
31391;DHT22;18022;45.492;11.548;2022-07-19T07:53:22;27.50;88.60
31391;DHT22;18022;45.492;11.548;2022-07-19T07:55:48;27.60;90.00
31391;DHT22;18022;45.492;11.548;2022-07-19T07:58:14;27.70;88.50
31391;DHT22;18022;45.492;11.548;2022-07-19T08:00:40;27.80;88.70
31391;DHT22;18022;45.492;11.548;2022-07-19T08:03:06;27.80;86.80
31391;DHT22;18022;45.492;11.548;2022-07-19T08:05:33;27.90;87.40
31391;DHT22;18022;45.492;11.548;2022-07-19T08:07:59;28.00;86.40
31391;DHT22;18022;45.492;11.548;2022-07-19T08:10:27;28.10;84.60
31391;DHT22;18022;45.492;11.548;2022-07-19T08:12:54;28.20;85.70
31391;DHT22;18022;45.492;11.548;2022-07-19T08:15:20;28.30;84.40
31391;DHT22;18022;45.492;11.548;2022-07-19T08:17:47;28.40;84.80
31391;DHT22;18022;45.492;11.548;2022-07-19T08:20:13;28.40;84.20
31391;DHT22;18022;45.492;11.548;2022-07-19T08:22:39;28.40;84.90
31391;DHT22;18022;45.492;11.548;2022-07-19T08:25:06;28.50;84.40
31391;DHT22;18022;45.492;11.548;2022-07-19T08:27:32;28.70;84.50
31391;DHT22;18022;45.492;11.548;2022-07-19T08:29:59;28.80;84.00
31391;DHT22;18022;45.492;11.548;2022-07-19T08:32:24;28.80;84.80
31391;DHT22;18022;45.492;11.548;2022-07-19T08:34:50;28.90;84.70
31391;DHT22;18022;45.492;11.548;2022-07-19T08:37:16;28.90;84.20
31391;DHT22;18022;45.492;11.548;2022-07-19T08:39:41;28.90;84.80
31391;DHT22;18022;45.492;11.548;2022-07-19T08:42:07;28.90;83.60
31391;DHT22;18022;45.492;11.548;2022-07-19T08:44:36;28.90;84.50
31391;DHT22;18022;45.492;11.548;2022-07-19T08:47:06;28.80;85.40
31391;DHT22;18022;45.492;11.548;2022-07-19T08:49:32;28.80;85.30
31391;DHT22;18022;45.492;11.548;2022-07-19T08:51:58;28.90;85.00
31391;DHT22;18022;45.492;11.548;2022-07-19T08:54:25;28.90;83.60
31391;DHT22;18022;45.492;11.548;2022-07-19T08:56:50;28.90;82.50
31391;DHT22;18022;45.492;11.548;2022-07-19T08:59:35;28.90;82.60
31391;DHT22;18022;45.492;11.548;2022-07-19T09:02:00;28.80;83.50
31391;DHT22;18022;45.492;11.548;2022-07-19T09:04:27;28.80;84.60
31391;DHT22;18022;45.492;11.548;2022-07-19T09:06:57;28.80;83.80
31391;DHT22;18022;45.492;11.548;2022-07-19T09:09:27;28.80;82.70
31391;DHT22;18022;45.492;11.548;2022-07-19T09:11:55;28.90;82.60
31391;DHT22;18022;45.492;11.548;2022-07-19T09:14:27;29.10;83.60
31391;DHT22;18022;45.492;11.548;2022-07-19T09:17:09;29.10;81.70
31391;DHT22;18022;45.492;11.548;2022-07-19T09:19:44;29.00;82.80
31391;DHT22;18022;45.492;11.548;2022-07-19T09:22:18;29.10;83.20
31391;DHT22;18022;45.492;11.548;2022-07-19T09:24:49;29.10;84.10
31391;DHT22;18022;45.492;11.548;2022-07-19T09:27:19;29.10;82.30
31391;DHT22;18022;45.492;11.548;2022-07-19T09:29:53;29.30;82.80
31391;DHT22;18022;45.492;11.548;2022-07-19T09:32:21;29.40;80.90
31391;DHT22;18022;45.492;11.548;2022-07-19T09:35:00;29.40;83.10
31391;DHT22;18022;45.492;11.548;2022-07-19T09:37:31;29.30;82.50
31391;DHT22;18022;45.492;11.548;2022-07-19T09:40:08;29.30;78.70
31391;DHT22;18022;45.492;11.548;2022-07-19T09:42:39;29.30;81.70
31391;DHT22;18022;45.492;11.548;2022-07-19T09:45:11;29.30;81.00
31391;DHT22;18022;45.492;11.548;2022-07-19T09:47:45;29.20;81.50
31391;DHT22;18022;45.492;11.548;2022-07-19T09:50:16;29.20;79.90
31391;DHT22;18022;45.492;11.548;2022-07-19T09:52:43;29.20;79.20
31391;DHT22;18022;45.492;11.548;2022-07-19T09:55:10;29.30;81.40
31391;DHT22;18022;45.492;11.548;2022-07-19T09:57:41;29.60;79.20
31391;DHT22;18022;45.492;11.548;2022-07-19T10:00:09;30.00;77.90
31391;DHT22;18022;45.492;11.548;2022-07-19T10:02:39;30.10;79.40
31391;DHT22;18022;45.492;11.548;2022-07-19T10:05:06;30.20;80.30
31391;DHT22;18022;45.492;11.548;2022-07-19T10:07:33;30.30;78.30
31391;DHT22;18022;45.492;11.548;2022-07-19T10:10:14;30.40;79.20
31391;DHT22;18022;45.492;11.548;2022-07-19T10:12:42;30.50;78.70
31391;DHT22;18022;45.492;11.548;2022-07-19T10:15:10;30.70;78.30
31391;DHT22;18022;45.492;11.548;2022-07-19T10:20:16;30.80;76.00
31391;DHT22;18022;45.492;11.548;2022-07-19T10:22:42;30.90;76.40
31391;DHT22;18022;45.492;11.548;2022-07-19T10:25:13;31.00;78.00
31391;DHT22;18022;45.492;11.548;2022-07-19T10:27:44;31.10;77.30
31391;DHT22;18022;45.492;11.548;2022-07-19T10:32:36;31.00;76.20
31391;DHT22;18022;45.492;11.548;2022-07-19T10:37:47;31.40;75.40
31391;DHT22;18022;45.492;11.548;2022-07-19T10:40:13;31.30;77.10
31391;DHT22;18022;45.492;11.548;2022-07-19T10:45:30;31.80;76.50
31391;DHT22;18022;45.492;11.548;2022-07-19T10:47:58;31.90;76.90
31391;DHT22;18022;45.492;11.548;2022-07-19T10:50:54;31.70;75.70
31391;DHT22;18022;45.492;11.548;2022-07-19T10:56:21;32.20;75.30
31391;DHT22;18022;45.492;11.548;2022-07-19T10:59:10;32.30;76.00
31391;DHT22;18022;45.492;11.548;2022-07-19T11:01:38;31.90;74.40
31391;DHT22;18022;45.492;11.548;2022-07-19T11:04:26;31.80;75.30
31391;DHT22;18022;45.492;11.548;2022-07-19T11:07:09;31.90;74.40
31391;DHT22;18022;45.492;11.548;2022-07-19T11:09:48;31.80;76.10
31391;DHT22;18022;45.492;11.548;2022-07-19T11:14:59;32.00;74.40
31391;DHT22;18022;45.492;11.548;2022-07-19T11:17:25;32.00;74.30
31391;DHT22;18022;45.492;11.548;2022-07-19T11:22:34;31.80;74.50
31391;DHT22;18022;45.492;11.548;2022-07-19T11:25:00;32.10;76.70
31391;DHT22;18022;45.492;11.548;2022-07-19T11:27:26;32.50;75.00
31391;DHT22;18022;45.492;11.548;2022-07-19T11:29:59;32.60;75.50
31391;DHT22;18022;45.492;11.548;2022-07-19T11:32:25;32.30;74.00
31391;DHT22;18022;45.492;11.548;2022-07-19T11:35:05;32.20;75.30
31391;DHT22;18022;45.492;11.548;2022-07-19T11:37:34;32.50;75.60
31391;DHT22;18022;45.492;11.548;2022-07-19T11:40:01;32.80;74.50
31391;DHT22;18022;45.492;11.548;2022-07-19T11:42:28;32.80;74.40
31391;DHT22;18022;45.492;11.548;2022-07-19T11:44:54;32.80;74.20
31391;DHT22;18022;45.492;11.548;2022-07-19T11:47:20;32.40;73.70
31391;DHT22;18022;45.492;11.548;2022-07-19T11:49:46;32.30;73.50
31391;DHT22;18022;45.492;11.548;2022-07-19T11:52:12;32.50;75.40
31391;DHT22;18022;45.492;11.548;2022-07-19T11:54:38;32.90;74.10
31391;DHT22;18022;45.492;11.548;2022-07-19T11:57:04;32.80;72.30
31391;DHT22;18022;45.492;11.548;2022-07-19T11:59:30;32.70;74.00
31391;DHT22;18022;45.492;11.548;2022-07-19T12:01:56;32.80;74.60
31391;DHT22;18022;45.492;11.548;2022-07-19T12:04:23;33.00;75.10
31391;DHT22;18022;45.492;11.548;2022-07-19T12:06:50;33.20;74.30
31391;DHT22;18022;45.492;11.548;2022-07-19T12:09:27;33.00;72.20
31391;DHT22;18022;45.492;11.548;2022-07-19T12:11:54;32.80;73.40
31391;DHT22;18022;45.492;11.548;2022-07-19T12:14:31;33.00;76.40
31391;DHT22;18022;45.492;11.548;2022-07-19T12:17:18;33.30;73.30
31391;DHT22;18022;45.492;11.548;2022-07-19T12:20:00;33.30;73.50
31391;DHT22;18022;45.492;11.548;2022-07-19T12:22:39;33.30;75.00
31391;DHT22;18022;45.492;11.548;2022-07-19T12:25:07;33.40;75.70
31391;DHT22;18022;45.492;11.548;2022-07-19T12:27:33;33.40;73.10
31391;DHT22;18022;45.492;11.548;2022-07-19T12:30:00;33.50;74.20
31391;DHT22;18022;45.492;11.548;2022-07-19T12:32:33;33.50;74.40
31391;DHT22;18022;45.492;11.548;2022-07-19T12:35:17;33.60;75.20
31391;DHT22;18022;45.492;11.548;2022-07-19T12:37:47;33.70;74.20
31391;DHT22;18022;45.492;11.548;2022-07-19T12:40:21;33.50;73.60
31391;DHT22;18022;45.492;11.548;2022-07-19T12:45:36;33.30;74.10
31391;DHT22;18022;45.492;11.548;2022-07-19T12:48:04;33.30;73.70
31391;DHT22;18022;45.492;11.548;2022-07-19T12:50:33;33.30;75.00
31391;DHT22;18022;45.492;11.548;2022-07-19T12:53:02;33.60;74.60
31391;DHT22;18022;45.492;11.548;2022-07-19T12:55:29;33.70;73.10
31391;DHT22;18022;45.492;11.548;2022-07-19T12:57:57;33.80;74.30
31391;DHT22;18022;45.492;11.548;2022-07-19T13:00:24;34.00;76.10
31391;DHT22;18022;45.492;11.548;2022-07-19T13:02:51;34.00;73.90
31391;DHT22;18022;45.492;11.548;2022-07-19T13:05:18;33.80;73.20
31391;DHT22;18022;45.492;11.548;2022-07-19T13:07:44;34.00;73.00
31391;DHT22;18022;45.492;11.548;2022-07-19T13:10:10;34.00;72.30
31391;DHT22;18022;45.492;11.548;2022-07-19T13:12:36;33.90;73.60
31391;DHT22;18022;45.492;11.548;2022-07-19T13:15:04;33.80;73.20
31391;DHT22;18022;45.492;11.548;2022-07-19T13:17:29;33.90;75.50
31391;DHT22;18022;45.492;11.548;2022-07-19T13:19:56;33.90;74.60
31391;DHT22;18022;45.492;11.548;2022-07-19T13:22:22;33.90;72.70
31391;DHT22;18022;45.492;11.548;2022-07-19T13:24:48;33.90;73.90
31391;DHT22;18022;45.492;11.548;2022-07-19T13:27:13;33.80;71.40
31391;DHT22;18022;45.492;11.548;2022-07-19T13:29:41;33.90;75.40
31391;DHT22;18022;45.492;11.548;2022-07-19T13:32:07;33.90;72.00
31391;DHT22;18022;45.492;11.548;2022-07-19T13:34:35;33.90;71.90
31391;DHT22;18022;45.492;11.548;2022-07-19T13:37:01;34.00;73.60
31391;DHT22;18022;45.492;11.548;2022-07-19T13:39:27;33.80;75.00
31391;DHT22;18022;45.492;11.548;2022-07-19T13:41:53;33.90;75.80
31391;DHT22;18022;45.492;11.548;2022-07-19T13:44:18;34.00;75.10
31391;DHT22;18022;45.492;11.548;2022-07-19T13:46:44;33.90;74.50
31391;DHT22;18022;45.492;11.548;2022-07-19T13:49:10;34.00;76.60
31391;DHT22;18022;45.492;11.548;2022-07-19T13:51:36;34.10;75.00
31391;DHT22;18022;45.492;11.548;2022-07-19T13:54:02;34.00;75.80
31391;DHT22;18022;45.492;11.548;2022-07-19T13:56:27;34.00;75.70
31391;DHT22;18022;45.492;11.548;2022-07-19T13:58:53;34.00;74.20
31391;DHT22;18022;45.492;11.548;2022-07-19T14:01:19;34.00;76.10
31391;DHT22;18022;45.492;11.548;2022-07-19T14:03:46;33.90;74.40
31391;DHT22;18022;45.492;11.548;2022-07-19T14:06:13;34.00;72.90
31391;DHT22;18022;45.492;11.548;2022-07-19T14:08:38;34.00;73.30
31391;DHT22;18022;45.492;11.548;2022-07-19T14:11:04;34.00;72.40
31391;DHT22;18022;45.492;11.548;2022-07-19T14:13:30;34.00;72.20
31391;DHT22;18022;45.492;11.548;2022-07-19T14:15:56;33.80;70.70
31391;DHT22;18022;45.492;11.548;2022-07-19T14:18:22;33.90;72.00
31391;DHT22;18022;45.492;11.548;2022-07-19T14:20:48;34.10;72.90
31391;DHT22;18022;45.492;11.548;2022-07-19T14:23:14;34.00;74.70
31391;DHT22;18022;45.492;11.548;2022-07-19T14:25:41;34.00;75.20
31391;DHT22;18022;45.492;11.548;2022-07-19T14:28:07;34.00;75.40
31391;DHT22;18022;45.492;11.548;2022-07-19T14:30:34;34.00;72.60
31391;DHT22;18022;45.492;11.548;2022-07-19T14:33:00;33.90;74.70
31391;DHT22;18022;45.492;11.548;2022-07-19T14:35:26;33.90;74.00
31391;DHT22;18022;45.492;11.548;2022-07-19T14:37:52;33.90;74.00
31391;DHT22;18022;45.492;11.548;2022-07-19T14:40:18;34.00;72.40
31391;DHT22;18022;45.492;11.548;2022-07-19T14:42:44;34.10;73.30
31391;DHT22;18022;45.492;11.548;2022-07-19T14:45:10;34.20;72.00
31391;DHT22;18022;45.492;11.548;2022-07-19T14:47:36;34.00;70.90
31391;DHT22;18022;45.492;11.548;2022-07-19T14:50:03;33.80;71.60
31391;DHT22;18022;45.492;11.548;2022-07-19T14:52:29;33.90;73.10
31391;DHT22;18022;45.492;11.548;2022-07-19T14:54:55;33.90;73.60
31391;DHT22;18022;45.492;11.548;2022-07-19T14:57:22;34.00;74.80
31391;DHT22;18022;45.492;11.548;2022-07-19T14:59:48;34.00;76.10
31391;DHT22;18022;45.492;11.548;2022-07-19T15:02:14;34.00;75.90
31391;DHT22;18022;45.492;11.548;2022-07-19T15:04:40;34.00;75.60
31391;DHT22;18022;45.492;11.548;2022-07-19T15:07:06;33.90;74.70
31391;DHT22;18022;45.492;11.548;2022-07-19T15:09:32;33.90;74.40
31391;DHT22;18022;45.492;11.548;2022-07-19T15:11:57;33.90;72.50
31391;DHT22;18022;45.492;11.548;2022-07-19T15:14:28;33.80;70.70
31391;DHT22;18022;45.492;11.548;2022-07-19T15:16:58;33.80;73.00
31391;DHT22;18022;45.492;11.548;2022-07-19T15:19:24;33.80;72.00
31391;DHT22;18022;45.492;11.548;2022-07-19T15:21:51;33.90;73.50
31391;DHT22;18022;45.492;11.548;2022-07-19T15:24:17;33.80;75.50
31391;DHT22;18022;45.492;11.548;2022-07-19T15:26:43;33.70;73.00
31391;DHT22;18022;45.492;11.548;2022-07-19T15:29:09;33.70;75.60
31391;DHT22;18022;45.492;11.548;2022-07-19T15:31:34;33.70;74.40
31391;DHT22;18022;45.492;11.548;2022-07-19T15:34:00;33.70;75.20
31391;DHT22;18022;45.492;11.548;2022-07-19T15:36:26;33.80;75.40
31391;DHT22;18022;45.492;11.548;2022-07-19T15:38:52;33.80;76.00
31391;DHT22;18022;45.492;11.548;2022-07-19T15:41:18;33.70;74.20
31391;DHT22;18022;45.492;11.548;2022-07-19T15:43:44;33.70;73.50